createdAt,value
2018-10-12T00:00:22.245Z,32.83
2018-10-12T00:02:49.863Z,33.37
2018-10-12T00:05:17.449Z,34.40
2018-10-12T00:07:45.100Z,33.70
2018-10-12T00:10:12.747Z,34.50
2018-10-12T00:12:40.765Z,34.77
2018-10-12T00:15:08.671Z,35.30
2018-10-12T00:17:36.274Z,32.70
2018-10-12T00:20:03.925Z,33.17
2018-10-12T00:22:31.528Z,32.63
2018-10-12T00:24:59.144Z,34.73
2018-10-12T00:27:26.855Z,34.77
2018-10-12T00:29:54.516Z,37.63
2018-10-12T00:32:22.116Z,37.40
2018-10-12T00:34:49.741Z,35.70
2018-10-12T00:37:17.342Z,33.70
2018-10-12T00:39:44.946Z,34.30
2018-10-12T00:42:12.579Z,35.27
2018-10-12T00:44:40.217Z,34.93
2018-10-12T00:47:07.865Z,34.27
2018-10-12T00:49:35.484Z,32.80
2018-10-12T00:52:03.099Z,34.13
2018-10-12T00:54:30.687Z,34.00
2018-10-12T00:56:58.379Z,34.73
2018-10-12T00:59:25.995Z,31.57
2018-10-12T01:01:53.608Z,29.83
2018-10-12T01:04:21.245Z,32.67
2018-10-12T01:06:48.899Z,35.53
2018-10-12T01:09:16.540Z,35.10
2018-10-12T01:11:44.133Z,35.20
2018-10-12T01:14:11.757Z,34.23
2018-10-12T01:16:39.459Z,34.00
2018-10-12T01:19:07.162Z,35.60
2018-10-12T01:21:34.835Z,36.03
2018-10-12T01:24:02.515Z,34.37
2018-10-12T01:26:30.154Z,35.60
2018-10-12T01:28:58.372Z,28.33
2018-10-12T01:31:27.081Z,27.47
2018-10-12T01:33:54.941Z,25.63
2018-10-12T01:36:22.847Z,23.93
2018-10-12T01:38:50.523Z,26.03
2018-10-12T01:41:18.160Z,27.70
2018-10-12T01:43:45.889Z,29.57
2018-10-12T01:46:13.529Z,28.83
2018-10-12T01:48:41.169Z,29.60
2018-10-12T01:51:08.768Z,27.37
2018-10-12T01:53:36.546Z,30.50
2018-10-12T01:56:05.361Z,32.07
2018-10-12T01:58:33.565Z,32.13
2018-10-12T02:01:01.477Z,33.60
2018-10-12T02:03:29.254Z,32.90
2018-10-12T02:05:56.895Z,30.57
2018-10-12T02:08:24.579Z,31.93
2018-10-12T02:10:52.204Z,31.90
2018-10-12T02:13:19.914Z,33.70
2018-10-12T02:15:47.527Z,34.50
2018-10-12T02:18:15.212Z,35.27
2018-10-12T02:20:42.821Z,33.50
2018-10-12T02:23:10.453Z,33.10
2018-10-12T02:25:38.053Z,33.73
2018-10-12T02:28:05.690Z,33.67
2018-10-12T02:30:33.292Z,33.87
2018-10-12T02:33:00.900Z,33.30
2018-10-12T02:35:28.504Z,33.00
2018-10-12T02:37:56.173Z,35.63
2018-10-12T02:40:23.775Z,34.17
2018-10-12T02:42:51.398Z,36.40
2018-10-12T02:45:19.087Z,38.00
2018-10-12T02:47:46.660Z,37.63
2018-10-12T02:50:14.275Z,38.00
2018-10-12T02:52:41.878Z,35.30
2018-10-12T02:55:09.492Z,32.90
2018-10-12T02:57:37.132Z,31.33
2018-10-12T03:00:05.005Z,31.30
2018-10-12T03:02:32.640Z,29.27
2018-10-12T03:05:00.276Z,31.50
2018-10-12T03:07:28.066Z,34.03
2018-10-12T03:09:55.635Z,35.97
2018-10-12T03:12:23.276Z,35.03
2018-10-12T03:14:50.914Z,34.03
2018-10-12T03:17:18.498Z,32.30
2018-10-12T03:19:46.101Z,29.87
2018-10-12T03:22:13.978Z,34.20
2018-10-12T03:24:41.842Z,33.20
2018-10-12T03:27:09.733Z,35.23
2018-10-12T03:29:37.336Z,34.23
2018-10-12T03:32:05.071Z,34.03
2018-10-12T03:34:32.889Z,34.33
2018-10-12T03:37:00.594Z,33.33
2018-10-12T03:39:28.211Z,34.83
2018-10-12T03:41:55.921Z,35.43
2018-10-12T03:44:23.567Z,36.10
2018-10-12T03:46:51.260Z,35.33
2018-10-12T03:49:18.902Z,35.00
2018-10-12T03:51:46.571Z,34.13
2018-10-12T03:54:14.168Z,31.27
2018-10-12T03:56:41.827Z,30.00
2018-10-12T03:59:09.603Z,33.30
2018-10-12T04:01:37.243Z,33.67
2018-10-12T04:04:04.873Z,37.30
2018-10-12T04:06:32.669Z,32.83
2018-10-12T04:09:00.342Z,36.67
2018-10-12T04:11:28.082Z,35.50
2018-10-12T04:13:55.727Z,36.27
2018-10-12T04:16:23.347Z,35.77
2018-10-12T04:18:50.964Z,36.73
2018-10-12T04:21:19.748Z,38.00
2018-10-12T04:23:47.354Z,36.10
2018-10-12T04:26:15.049Z,35.97
2018-10-12T04:28:42.705Z,31.67
2018-10-12T04:31:10.323Z,34.50
2018-10-12T04:33:37.970Z,31.87
2018-10-12T04:36:05.575Z,35.10
2018-10-12T04:38:38.816Z,36.40
2018-10-12T04:41:22.639Z,38.33
2018-10-12T04:43:52.702Z,34.90
2018-10-12T04:46:22.413Z,36.00
2018-10-12T04:48:50.620Z,37.77
2018-10-12T04:51:20.679Z,36.50
2018-10-12T04:53:48.488Z,35.00
2018-10-12T04:56:18.041Z,35.73
2018-10-12T04:58:45.692Z,37.63
2018-10-12T05:01:13.506Z,38.30
2018-10-12T05:03:41.057Z,40.95
2018-10-12T05:06:08.669Z,40.73
2018-10-12T05:08:36.735Z,40.43
2018-10-12T05:11:04.346Z,37.63
2018-10-12T05:13:33.002Z,38.60
2018-10-12T05:16:00.860Z,37.70
2018-10-12T05:18:28.509Z,37.57
2018-10-12T05:20:56.175Z,35.17
2018-10-12T05:23:23.771Z,34.50
2018-10-12T05:25:51.408Z,34.90
2018-10-12T05:28:19.048Z,35.97
2018-10-12T05:30:46.658Z,37.23
2018-10-12T05:33:14.260Z,37.07
2018-10-12T05:35:41.894Z,36.67
2018-10-12T05:38:09.574Z,36.80
2018-10-12T05:40:37.225Z,37.10
2018-10-12T05:43:04.875Z,37.40
2018-10-12T05:45:32.515Z,38.17
2018-10-12T05:48:05.527Z,37.30
2018-10-12T05:50:33.241Z,34.83
2018-10-12T05:53:00.922Z,40.43
2018-10-12T05:55:28.542Z,36.63
2018-10-12T05:57:56.217Z,38.73
2018-10-12T06:00:23.933Z,38.27
2018-10-12T06:02:51.564Z,38.87
2018-10-12T06:05:19.256Z,36.13
2018-10-12T06:07:47.443Z,37.10
2018-10-12T06:10:15.088Z,37.13
2018-10-12T06:12:42.755Z,38.07
2018-10-12T06:15:10.353Z,36.30
2018-10-12T06:17:37.976Z,37.87
2018-10-12T06:20:05.651Z,35.83
2018-10-12T06:22:33.293Z,33.07
2018-10-12T06:25:00.992Z,33.97
2018-10-12T06:27:28.552Z,34.57
2018-10-12T06:29:56.122Z,36.10
2018-10-12T06:32:23.724Z,38.43
2018-10-12T06:34:51.309Z,43.40
2018-10-12T06:37:18.909Z,42.80
2018-10-12T06:39:46.515Z,44.23
2018-10-12T06:42:14.125Z,39.70
2018-10-12T06:44:41.716Z,40.37
2018-10-12T06:47:09.371Z,40.87
2018-10-12T06:49:37.024Z,42.67
2018-10-12T06:52:04.650Z,42.90
2018-10-12T06:54:32.255Z,44.80
2018-10-12T06:56:59.886Z,45.60
2018-10-12T06:59:27.461Z,43.47
2018-10-12T07:01:55.044Z,44.90
2018-10-12T07:04:22.652Z,44.00
2018-10-12T07:06:50.325Z,48.43
2018-10-12T07:09:17.949Z,45.37
2018-10-12T07:11:45.575Z,48.30
2018-10-12T07:14:13.195Z,52.87
2018-10-12T07:16:40.806Z,48.03
2018-10-12T07:19:17.055Z,47.67
2018-10-12T07:21:45.114Z,42.33
2018-10-12T07:24:12.713Z,47.87
2018-10-12T07:26:40.345Z,45.60
2018-10-12T07:29:07.983Z,44.93
2018-10-12T07:31:35.710Z,45.03
2018-10-12T07:34:03.949Z,44.93
2018-10-12T07:36:31.607Z,43.23
2018-10-12T07:38:59.296Z,46.43
2018-10-12T07:41:26.905Z,43.70
2018-10-12T07:43:54.526Z,43.00
2018-10-12T07:46:22.140Z,42.07
2018-10-12T07:48:50.137Z,44.87
2018-10-12T07:51:17.762Z,42.73
2018-10-12T07:53:45.361Z,40.77
2018-10-12T07:56:12.993Z,44.70
2018-10-12T07:58:40.661Z,43.60
2018-10-12T08:01:08.299Z,44.87
2018-10-12T08:03:35.974Z,44.53
2018-10-12T08:06:03.657Z,48.00
2018-10-12T08:08:31.271Z,44.40
2018-10-12T08:10:58.900Z,43.97
2018-10-12T08:13:26.621Z,45.20
2018-10-12T08:15:56.105Z,47.00
2018-10-12T08:18:23.918Z,46.60
2018-10-12T08:20:51.617Z,45.53
2018-10-12T08:23:19.216Z,47.50
2018-10-12T08:25:46.879Z,47.87
2018-10-12T08:28:14.492Z,46.70
2018-10-12T08:30:42.102Z,44.10
2018-10-12T08:33:09.691Z,46.63
2018-10-12T08:35:37.269Z,46.87
2018-10-12T08:38:04.935Z,45.53
2018-10-12T08:40:32.545Z,46.30
2018-10-12T08:43:00.148Z,46.27
2018-10-12T08:45:27.733Z,45.60
2018-10-12T08:47:55.323Z,44.93
2018-10-12T08:50:22.924Z,43.50
2018-10-12T08:52:50.490Z,42.97
2018-10-12T08:55:18.136Z,43.40
2018-10-12T08:57:45.995Z,42.07
2018-10-12T09:00:14.131Z,41.07
2018-10-12T09:02:41.748Z,41.50
2018-10-12T09:05:09.353Z,42.07
2018-10-12T09:07:37.029Z,41.73
2018-10-12T09:10:04.906Z,44.27
2018-10-12T09:12:32.501Z,42.27
2018-10-12T09:15:00.148Z,43.00
2018-10-12T09:17:27.807Z,40.70
2018-10-12T09:19:55.413Z,44.33
2018-10-12T09:22:23.385Z,39.20
2018-10-12T09:24:51.253Z,39.83
2018-10-12T09:27:18.953Z,39.30
2018-10-12T09:29:46.517Z,40.43
2018-10-12T09:32:14.106Z,37.67
2018-10-12T09:34:41.685Z,37.73
2018-10-12T09:37:09.353Z,38.80
2018-10-12T09:39:36.943Z,37.20
2018-10-12T09:42:04.620Z,37.00
2018-10-12T09:44:32.231Z,37.87
2018-10-12T09:46:59.840Z,39.17
2018-10-12T09:49:27.685Z,37.60
2018-10-12T09:51:55.350Z,34.00
2018-10-12T09:54:22.960Z,33.43
2018-10-12T09:56:56.060Z,39.37
2018-10-12T09:59:23.764Z,38.37
2018-10-12T10:01:56.715Z,38.97
2018-10-12T10:04:30.386Z,37.13
2018-10-12T10:06:58.407Z,36.20
2018-10-12T10:09:26.075Z,39.77
2018-10-12T10:11:53.653Z,37.13
2018-10-12T10:14:21.262Z,38.50
2018-10-12T10:16:48.846Z,39.53
2018-10-12T10:19:16.847Z,58.10
2018-10-12T10:21:44.438Z,127.60
2018-10-12T10:24:12.136Z,38.77
2018-10-12T10:26:39.787Z,55.90
2018-10-12T10:29:07.409Z,40.77
2018-10-12T10:31:35.010Z,52.77
2018-10-12T10:34:02.601Z,38.83
2018-10-12T10:36:30.231Z,37.20
2018-10-12T10:38:57.873Z,37.40
2018-10-12T10:41:25.479Z,36.10
2018-10-12T10:43:53.085Z,35.53
2018-10-12T10:46:20.855Z,35.00
2018-10-12T10:48:48.435Z,35.70
2018-10-12T10:51:16.426Z,35.33
2018-10-12T10:53:44.069Z,35.77
2018-10-12T10:56:11.650Z,35.93
2018-10-12T10:58:39.264Z,37.33
2018-10-12T11:01:06.922Z,35.20
2018-10-12T11:03:34.548Z,34.13
2018-10-12T11:06:02.151Z,35.87
2018-10-12T11:08:29.778Z,35.03
2018-10-12T11:10:57.390Z,31.40
2018-10-12T11:13:25.009Z,31.57
2018-10-12T11:15:52.624Z,30.90
2018-10-12T11:18:20.208Z,28.60
2018-10-12T11:20:47.855Z,30.53
2018-10-12T11:23:15.480Z,30.37
2018-10-12T11:25:43.077Z,31.30
2018-10-12T11:28:10.704Z,29.27
2018-10-12T11:30:38.310Z,29.13
2018-10-12T11:33:06.099Z,28.20
2018-10-12T11:35:33.728Z,29.70
2018-10-12T11:38:01.350Z,30.00
2018-10-12T11:40:28.928Z,29.00
2018-10-12T11:43:01.940Z,28.90
2018-10-12T11:45:29.657Z,26.17
2018-10-12T11:47:57.237Z,26.63
2018-10-12T11:50:24.824Z,27.90
2018-10-12T11:52:52.421Z,26.30
2018-10-12T11:55:20.034Z,26.93
2018-10-12T11:57:47.640Z,24.53
2018-10-12T12:00:15.261Z,27.70
2018-10-12T12:02:42.854Z,25.27
2018-10-12T12:05:10.451Z,25.87
2018-10-12T12:07:38.024Z,27.93
2018-10-12T12:10:05.717Z,27.30
2018-10-12T12:12:33.313Z,25.97
2018-10-12T12:15:01.163Z,25.13
2018-10-12T12:17:28.764Z,29.27
2018-10-12T12:19:56.354Z,30.60
2018-10-12T12:22:23.938Z,30.37
2018-10-12T12:24:51.526Z,29.73
2018-10-12T12:27:19.113Z,29.40
2018-10-12T12:29:46.693Z,29.50
2018-10-12T12:32:14.272Z,29.33
2018-10-12T12:34:41.937Z,28.80
2018-10-12T12:37:09.523Z,30.73
2018-10-12T12:39:37.365Z,32.13
2018-10-12T12:42:04.973Z,32.43
2018-10-12T12:44:32.613Z,30.80
2018-10-12T12:47:00.221Z,29.93
2018-10-12T12:49:27.965Z,30.80
2018-10-12T12:51:55.507Z,30.20
2018-10-12T12:54:23.218Z,29.20
2018-10-12T12:56:50.825Z,29.10
2018-10-12T12:59:18.430Z,28.90
2018-10-12T13:01:46.062Z,29.90
2018-10-12T13:04:13.740Z,29.10
2018-10-12T13:06:41.378Z,30.40
2018-10-12T13:09:09.864Z,28.83
2018-10-12T13:11:37.897Z,28.10
2018-10-12T13:14:05.488Z,28.40
2018-10-12T13:16:33.130Z,27.20
2018-10-12T13:19:00.791Z,27.23
2018-10-12T13:21:28.849Z,26.57
2018-10-12T13:23:56.440Z,27.20
2018-10-12T13:26:24.164Z,27.03
2018-10-12T13:28:51.671Z,25.30
2018-10-12T13:31:19.277Z,26.83
2018-10-12T13:33:47.145Z,26.90
2018-10-12T13:36:14.726Z,29.13
2018-10-12T13:38:42.290Z,27.23
2018-10-12T13:41:09.896Z,27.43
2018-10-12T13:43:37.503Z,28.53
2018-10-12T13:46:05.166Z,27.87
2018-10-12T13:48:32.827Z,28.27
2018-10-12T13:51:00.477Z,27.97
2018-10-12T13:53:28.088Z,30.03
2018-10-12T13:55:55.690Z,28.53
2018-10-12T13:58:23.248Z,27.43
2018-10-12T14:00:50.860Z,27.43
2018-10-12T14:03:18.457Z,26.17
2018-10-12T14:05:46.156Z,27.40
2018-10-12T14:08:14.073Z,26.50
2018-10-12T14:10:41.686Z,26.60
2018-10-12T14:13:09.348Z,25.20
2018-10-12T14:15:36.957Z,25.33
2018-10-12T14:18:04.689Z,26.20
2018-10-12T14:20:32.272Z,27.00
2018-10-12T14:22:59.952Z,25.50
2018-10-12T14:25:27.585Z,28.07
2018-10-12T14:27:55.164Z,26.73
2018-10-12T14:30:22.765Z,25.70
2018-10-12T14:32:50.389Z,26.00
2018-10-12T14:35:18.071Z,26.50
2018-10-12T14:37:45.701Z,25.87
2018-10-12T14:40:13.308Z,26.47
2018-10-12T14:42:40.902Z,29.10
2018-10-12T14:45:08.566Z,27.30
2018-10-12T14:47:36.468Z,26.20
2018-10-12T14:50:04.121Z,28.40
2018-10-12T14:52:34.819Z,28.07
2018-10-12T14:55:02.410Z,28.63
2018-10-12T14:57:30.034Z,29.47
2018-10-12T14:59:57.729Z,28.90
2018-10-12T15:02:25.388Z,28.47
2018-10-12T15:04:53.018Z,28.80
2018-10-12T15:07:20.627Z,29.53
2018-10-12T15:09:48.251Z,29.63
2018-10-12T15:12:15.846Z,28.87
2018-10-12T15:14:48.958Z,30.50
2018-10-12T15:17:16.617Z,28.73
2018-10-12T15:19:44.205Z,29.57
2018-10-12T15:22:12.441Z,29.33
2018-10-12T15:24:40.051Z,31.50
2018-10-12T15:27:07.656Z,31.97
2018-10-12T15:29:35.732Z,32.30
2018-10-12T15:32:03.370Z,28.90
2018-10-12T15:34:31.005Z,30.80
2018-10-12T15:36:58.653Z,30.00
2018-10-12T15:39:26.279Z,29.90
2018-10-12T15:41:53.917Z,31.70
2018-10-12T15:44:21.550Z,33.03
2018-10-12T15:46:49.229Z,30.37
2018-10-12T15:49:16.884Z,31.70
2018-10-12T15:51:44.501Z,31.93
2018-10-12T15:54:12.198Z,30.43
2018-10-12T15:56:39.918Z,31.67
2018-10-12T15:59:07.526Z,31.90
2018-10-12T16:01:35.130Z,31.80
2018-10-12T16:04:02.805Z,33.07
2018-10-12T16:06:30.611Z,32.43
2018-10-12T16:08:58.336Z,32.83
2018-10-12T16:11:26.240Z,31.33
2018-10-12T16:13:53.982Z,30.50
2018-10-12T16:16:21.717Z,31.13
2018-10-12T16:18:49.444Z,32.00
2018-10-12T16:21:17.118Z,34.10
2018-10-12T16:23:47.153Z,35.27
2018-10-12T16:26:16.022Z,32.53
2018-10-12T16:28:43.687Z,32.40
2018-10-12T16:31:11.366Z,33.37
2018-10-12T16:33:39.104Z,35.73
2018-10-12T16:36:06.822Z,33.40
2018-10-12T16:38:34.576Z,33.00
2018-10-12T16:41:02.226Z,33.17
2018-10-12T16:43:29.954Z,34.17
2018-10-12T16:45:57.573Z,36.37
2018-10-12T16:48:25.209Z,65.50
2018-10-12T16:50:52.977Z,61.60
2018-10-12T16:53:20.683Z,67.70
2018-10-12T16:55:48.375Z,61.77
2018-10-12T16:58:16.430Z,61.87
2018-10-12T17:00:44.315Z,54.67
2018-10-12T17:03:12.119Z,54.50
2018-10-12T17:05:39.882Z,48.00
2018-10-12T17:08:07.548Z,43.30
2018-10-12T17:10:35.781Z,42.20
2018-10-12T17:13:03.393Z,39.33
2018-10-12T17:15:31.005Z,39.00
2018-10-12T17:17:59.635Z,37.50
2018-10-12T17:20:27.366Z,36.67
2018-10-12T17:22:55.681Z,38.50
2018-10-12T17:25:23.460Z,36.73
2018-10-12T17:27:51.156Z,36.67
2018-10-12T17:30:19.744Z,39.23
2018-10-12T17:32:47.484Z,37.50
2018-10-12T17:35:15.376Z,36.20
2018-10-12T17:37:43.029Z,37.70
2018-10-12T17:40:11.198Z,36.40
2018-10-12T17:42:38.838Z,37.77
2018-10-12T17:45:07.024Z,36.70
2018-10-12T17:47:34.631Z,37.83
2018-10-12T17:50:02.324Z,37.80
2018-10-12T17:52:29.965Z,37.80
2018-10-12T17:54:57.665Z,37.27
2018-10-12T17:57:27.200Z,38.00
2018-10-12T17:59:55.100Z,37.80
2018-10-12T18:02:22.747Z,35.07
2018-10-12T18:04:50.359Z,38.53
2018-10-12T18:07:17.994Z,38.77
2018-10-12T18:09:45.925Z,37.93
2018-10-12T18:12:13.564Z,35.30
2018-10-12T18:14:41.312Z,37.50
2018-10-12T18:17:08.995Z,37.83
2018-10-12T18:19:36.655Z,37.83
2018-10-12T18:22:04.298Z,38.80
2018-10-12T18:24:31.981Z,38.00
2018-10-12T18:27:00.002Z,38.33
2018-10-12T18:29:27.712Z,39.67
2018-10-12T18:31:55.303Z,39.33
2018-10-12T18:34:23.116Z,40.57
2018-10-12T18:36:50.806Z,39.60
2018-10-12T18:39:18.433Z,37.40
2018-10-12T18:41:46.084Z,38.53
2018-10-12T18:44:13.742Z,39.80
2018-10-12T18:46:41.346Z,39.90
2018-10-12T18:49:08.991Z,39.60
2018-10-12T18:51:36.617Z,40.90
2018-10-12T18:54:04.273Z,38.33
2018-10-12T18:56:31.901Z,39.17
2018-10-12T18:58:59.487Z,39.97
2018-10-12T19:01:27.088Z,41.47
2018-10-12T19:03:54.748Z,42.40
2018-10-12T19:06:22.408Z,41.63
2018-10-12T19:08:50.021Z,42.13
2018-10-12T19:11:17.651Z,40.33
2018-10-12T19:13:45.531Z,39.80
2018-10-12T19:16:13.110Z,37.50
2018-10-12T19:18:40.753Z,41.87
2018-10-12T19:21:08.408Z,39.73
2018-10-12T19:23:37.450Z,41.10
2018-10-12T19:26:06.587Z,43.37
2018-10-12T19:28:34.729Z,41.60
2018-10-12T19:31:02.976Z,42.10
2018-10-12T19:33:30.686Z,41.97
2018-10-12T19:35:58.347Z,40.70
2018-10-12T19:38:26.161Z,41.70
2018-10-12T19:40:53.870Z,41.93
2018-10-12T19:43:21.626Z,43.23
2018-10-12T19:45:49.251Z,42.50
2018-10-12T19:48:16.972Z,41.27
2018-10-12T19:50:44.679Z,43.83
2018-10-12T19:53:12.373Z,40.97
2018-10-12T19:55:40.179Z,43.20
2018-10-12T19:58:07.864Z,41.50
2018-10-12T20:00:35.517Z,41.90
2018-10-12T20:03:03.229Z,43.63
2018-10-12T20:05:30.901Z,41.53
2018-10-12T20:07:58.528Z,41.80
2018-10-12T20:10:26.248Z,41.33
2018-10-12T20:12:54.160Z,42.10
2018-10-12T20:15:21.812Z,42.77
2018-10-12T20:17:49.596Z,42.60
2018-10-12T20:20:18.670Z,40.97
2018-10-12T20:22:46.331Z,42.30
2018-10-12T20:25:13.983Z,44.87
2018-10-12T20:27:41.683Z,43.03
2018-10-12T20:30:09.668Z,42.23
2018-10-12T20:32:37.314Z,43.97
2018-10-12T20:35:05.045Z,42.93
2018-10-12T20:37:32.834Z,44.17
2018-10-12T20:40:00.574Z,43.70
2018-10-12T20:42:28.257Z,44.43
2018-10-12T20:44:55.919Z,47.13
2018-10-12T20:47:23.572Z,45.93
2018-10-12T20:49:51.227Z,45.07
2018-10-12T20:52:18.933Z,43.67
2018-10-12T20:54:46.607Z,44.23
2018-10-12T20:57:14.327Z,42.83
2018-10-12T20:59:41.978Z,40.50
2018-10-12T21:02:09.598Z,40.10
2018-10-12T21:04:37.290Z,43.93
2018-10-12T21:07:05.084Z,42.60
2018-10-12T21:09:32.756Z,43.20
2018-10-12T21:12:01.345Z,42.33
2018-10-12T21:14:29.050Z,41.47
2018-10-12T21:16:56.830Z,44.90
2018-10-12T21:19:24.460Z,43.80
2018-10-12T21:21:52.135Z,43.13
2018-10-12T21:24:19.838Z,42.80
2018-10-12T21:26:47.499Z,42.10
2018-10-12T21:29:15.160Z,45.27
2018-10-12T21:31:56.048Z,43.90
2018-10-12T21:34:23.770Z,45.40
2018-10-12T21:36:51.430Z,43.20
2018-10-12T21:39:19.098Z,42.60
2018-10-12T21:41:46.748Z,43.27
2018-10-12T21:44:14.453Z,43.20
2018-10-12T21:46:42.167Z,40.00
2018-10-12T21:49:09.845Z,44.43
2018-10-12T21:51:37.501Z,40.43
2018-10-12T21:54:05.150Z,42.47
2018-10-12T21:56:32.797Z,40.80
2018-10-12T21:59:00.460Z,42.70
2018-10-12T22:01:28.122Z,40.90
2018-10-12T22:03:55.734Z,41.30
2018-10-12T22:06:23.374Z,42.67
2018-10-12T22:08:52.414Z,41.47
2018-10-12T22:11:20.029Z,41.93
2018-10-12T22:13:47.632Z,42.33
2018-10-12T22:16:15.255Z,41.20
2018-10-12T22:18:42.878Z,43.30
2018-10-12T22:21:10.548Z,41.07
2018-10-12T22:23:38.208Z,43.67
2018-10-12T22:26:05.875Z,41.90
2018-10-12T22:28:33.572Z,42.83
2018-10-12T22:31:01.195Z,43.80
2018-10-12T22:33:28.809Z,41.80
2018-10-12T22:35:56.436Z,44.03
2018-10-12T22:38:24.071Z,41.90
2018-10-12T22:40:52.022Z,42.70
2018-10-12T22:43:19.649Z,41.63
2018-10-12T22:45:47.257Z,43.63
2018-10-12T22:48:14.877Z,43.73
2018-10-12T22:50:42.544Z,45.97
2018-10-12T22:53:10.183Z,45.27
2018-10-12T22:55:38.139Z,44.73
2018-10-12T22:58:05.770Z,43.87
2018-10-12T23:00:34.191Z,43.00
2018-10-12T23:03:02.057Z,42.57
2018-10-12T23:05:29.669Z,43.47
2018-10-12T23:07:57.282Z,42.57
2018-10-12T23:10:25.746Z,44.13
2018-10-12T23:12:53.927Z,44.27
2018-10-12T23:15:21.559Z,43.10
2018-10-12T23:17:49.298Z,42.40
2018-10-12T23:20:16.973Z,42.50
2018-10-12T23:22:44.581Z,43.50
2018-10-12T23:25:12.207Z,43.10
2018-10-12T23:27:39.849Z,41.20
2018-10-12T23:30:07.970Z,42.50
2018-10-12T23:32:35.774Z,43.07
2018-10-12T23:35:03.439Z,39.47
2018-10-12T23:37:31.071Z,39.20
2018-10-12T23:39:58.683Z,39.87
2018-10-12T23:42:26.291Z,43.33
2018-10-12T23:44:53.887Z,42.07
2018-10-12T23:47:21.569Z,41.93
2018-10-12T23:49:49.233Z,39.83
2018-10-12T23:52:16.899Z,42.70
2018-10-12T23:54:44.584Z,41.60
2018-10-12T23:57:12.225Z,42.80
2018-10-12T23:59:39.851Z,39.10
